Redcliff, Canada
Current Conditions -  °F | °C
As of 1:00 PM on Wednesday 28 Jan 2015 (Local Time) from CYXH Reporting Station
Broken Clouds Broken Clouds  
Wind Chill: 34°   Ceiling: 11000
Heat Index: 39°   Visibility: 15mi
Dew Point: 34°   Wind: 8mph
Humidity: 81%   Direction: 250°WSW
Pressure: 30.26"   Gusts: NA
Location:  50.08°N, 110.79°W
Report Text: CYXH 282000Z 25007KT 15SM FEW005 SCT017 BKN110 04/01 A3026 RMK ST1SC2AC2 VSBY S-SE 21/2 SLP274
Loading
Personal Weather Stations






























Interactive Weather Map New forecast layout! Learn more

10-Day Weather Forecast

Advertisements
Track Severe Weather on mobile